sensor_id;sensor_type;location;lat;lon;timestamp;temperature;humidity
11474;DHT22;5793;52.238;13.438;2022-09-16T00:00:56;12.30;99.90
11474;DHT22;5793;52.238;13.438;2022-09-16T00:03:24;12.30;99.90
11474;DHT22;5793;52.238;13.438;2022-09-16T00:05:53;12.20;99.90
11474;DHT22;5793;52.238;13.438;2022-09-16T00:08:21;12.20;99.90
11474;DHT22;5793;52.238;13.438;2022-09-16T00:10:49;12.20;99.90
11474;DHT22;5793;52.238;13.438;2022-09-16T00:13:18;12.20;99.90
11474;DHT22;5793;52.238;13.438;2022-09-16T00:15:47;12.10;99.90
11474;DHT22;5793;52.238;13.438;2022-09-16T00:18:17;12.00;99.90
11474;DHT22;5793;52.238;13.438;2022-09-16T00:20:47;12.00;99.90
11474;DHT22;5793;52.238;13.438;2022-09-16T00:23:17;12.00;99.90
11474;DHT22;5793;52.238;13.438;2022-09-16T00:25:49;12.00;99.90
11474;DHT22;5793;52.238;13.438;2022-09-16T00:28:18;12.00;99.90
11474;DHT22;5793;52.238;13.438;2022-09-16T00:30:47;12.00;99.90
11474;DHT22;5793;52.238;13.438;2022-09-16T00:33:15;11.90;99.90
11474;DHT22;5793;52.238;13.438;2022-09-16T00:35:43;11.90;99.90
11474;DHT22;5793;52.238;13.438;2022-09-16T00:38:11;11.90;99.90
11474;DHT22;5793;52.238;13.438;2022-09-16T00:40:45;11.90;99.90
11474;DHT22;5793;52.238;13.438;2022-09-16T00:43:15;11.70;99.90
11474;DHT22;5793;52.238;13.438;2022-09-16T00:45:44;11.70;99.90
11474;DHT22;5793;52.238;13.438;2022-09-16T00:48:17;11.70;99.90
11474;DHT22;5793;52.238;13.438;2022-09-16T00:50:48;11.70;99.90
11474;DHT22;5793;52.238;13.438;2022-09-16T00:53:20;11.60;99.90
11474;DHT22;5793;52.238;13.438;2022-09-16T00:55:53;11.60;99.90
11474;DHT22;5793;52.238;13.438;2022-09-16T00:58:25;11.50;99.90
11474;DHT22;5793;52.238;13.438;2022-09-16T01:00:57;11.50;99.90
11474;DHT22;5793;52.238;13.438;2022-09-16T01:03:25;11.50;99.90
11474;DHT22;5793;52.238;13.438;2022-09-16T01:05:54;11.40;99.90
11474;DHT22;5793;52.238;13.438;2022-09-16T01:08:22;11.50;99.90
11474;DHT22;5793;52.238;13.438;2022-09-16T01:10:51;11.40;99.90
11474;DHT22;5793;52.238;13.438;2022-09-16T01:13:19;11.50;99.90
11474;DHT22;5793;52.238;13.438;2022-09-16T01:15:54;11.40;99.90
11474;DHT22;5793;52.238;13.438;2022-09-16T01:18:27;11.30;99.90
11474;DHT22;5793;52.238;13.438;2022-09-16T01:21:16;11.30;99.90
11474;DHT22;5793;52.238;13.438;2022-09-16T01:33:17;11.30;99.90
11474;DHT22;5793;52.238;13.438;2022-09-16T01:36:08;11.30;99.90
11474;DHT22;5793;52.238;13.438;2022-09-16T01:38:57;11.20;99.90
11474;DHT22;5793;52.238;13.438;2022-09-16T01:41:34;11.20;99.90
11474;DHT22;5793;52.238;13.438;2022-09-16T01:44:08;11.20;99.90
11474;DHT22;5793;52.238;13.438;2022-09-16T01:46:43;11.20;99.90
11474;DHT22;5793;52.238;13.438;2022-09-16T01:49:20;11.20;99.90
11474;DHT22;5793;52.238;13.438;2022-09-16T01:51:55;11.20;99.90
11474;DHT22;5793;52.238;13.438;2022-09-16T01:54:28;11.30;99.90
11474;DHT22;5793;52.238;13.438;2022-09-16T01:57:01;11.40;99.90
11474;DHT22;5793;52.238;13.438;2022-09-16T01:59:34;11.40;99.90
11474;DHT22;5793;52.238;13.438;2022-09-16T02:02:05;11.30;99.90
11474;DHT22;5793;52.238;13.438;2022-09-16T02:04:39;11.30;99.90
11474;DHT22;5793;52.238;13.438;2022-09-16T02:07:10;11.30;99.90
11474;DHT22;5793;52.238;13.438;2022-09-16T02:09:41;11.40;99.90
11474;DHT22;5793;52.238;13.438;2022-09-16T02:12:14;11.30;99.90
11474;DHT22;5793;52.238;13.438;2022-09-16T02:14:45;11.30;99.90
11474;DHT22;5793;52.238;13.438;2022-09-16T02:17:16;11.20;99.90
11474;DHT22;5793;52.238;13.438;2022-09-16T02:19:49;11.30;99.90
11474;DHT22;5793;52.238;13.438;2022-09-16T02:22:23;11.20;99.90
11474;DHT22;5793;52.238;13.438;2022-09-16T02:24:52;11.10;99.90
11474;DHT22;5793;52.238;13.438;2022-09-16T02:27:21;11.10;99.90
11474;DHT22;5793;52.238;13.438;2022-09-16T02:29:53;11.10;99.90
11474;DHT22;5793;52.238;13.438;2022-09-16T02:32:23;11.10;99.90
11474;DHT22;5793;52.238;13.438;2022-09-16T02:34:54;11.00;99.90
11474;DHT22;5793;52.238;13.438;2022-09-16T02:37:25;11.00;99.90
11474;DHT22;5793;52.238;13.438;2022-09-16T02:39:57;11.00;99.90
11474;DHT22;5793;52.238;13.438;2022-09-16T02:42:28;10.90;99.90
11474;DHT22;5793;52.238;13.438;2022-09-16T02:44:57;10.90;99.90
11474;DHT22;5793;52.238;13.438;2022-09-16T02:47:29;10.90;99.90
11474;DHT22;5793;52.238;13.438;2022-09-16T02:50:03;10.90;99.90
11474;DHT22;5793;52.238;13.438;2022-09-16T02:52:39;10.90;99.90
11474;DHT22;5793;52.238;13.438;2022-09-16T02:55:14;10.90;99.90
11474;DHT22;5793;52.238;13.438;2022-09-16T02:57:45;11.00;99.90
11474;DHT22;5793;52.238;13.438;2022-09-16T03:00:13;10.90;99.90
11474;DHT22;5793;52.238;13.438;2022-09-16T03:02:41;10.90;99.90
11474;DHT22;5793;52.238;13.438;2022-09-16T03:05:10;10.90;99.90
11474;DHT22;5793;52.238;13.438;2022-09-16T03:07:39;10.90;99.90
11474;DHT22;5793;52.238;13.438;2022-09-16T03:10:08;10.90;99.90
11474;DHT22;5793;52.238;13.438;2022-09-16T03:12:46;10.90;99.90
11474;DHT22;5793;52.238;13.438;2022-09-16T03:15:46;10.90;99.90
11474;DHT22;5793;52.238;13.438;2022-09-16T03:18:23;10.90;99.90
11474;DHT22;5793;52.238;13.438;2022-09-16T03:20:59;10.90;99.90
11474;DHT22;5793;52.238;13.438;2022-09-16T03:23:41;10.80;99.90
11474;DHT22;5793;52.238;13.438;2022-09-16T03:26:18;10.80;99.90
11474;DHT22;5793;52.238;13.438;2022-09-16T03:28:54;10.80;99.90
11474;DHT22;5793;52.238;13.438;2022-09-16T03:31:29;10.70;99.90
11474;DHT22;5793;52.238;13.438;2022-09-16T03:34:04;10.70;99.90
11474;DHT22;5793;52.238;13.438;2022-09-16T03:36:38;10.80;99.90
11474;DHT22;5793;52.238;13.438;2022-09-16T03:39:09;10.70;99.90
11474;DHT22;5793;52.238;13.438;2022-09-16T03:41:38;10.70;99.90
11474;DHT22;5793;52.238;13.438;2022-09-16T03:44:05;10.80;99.90
11474;DHT22;5793;52.238;13.438;2022-09-16T03:46:33;10.80;99.90
11474;DHT22;5793;52.238;13.438;2022-09-16T03:49:02;10.70;99.90
11474;DHT22;5793;52.238;13.438;2022-09-16T03:51:30;10.80;99.90
11474;DHT22;5793;52.238;13.438;2022-09-16T03:53:59;10.70;99.90
11474;DHT22;5793;52.238;13.438;2022-09-16T03:56:27;10.70;99.90
11474;DHT22;5793;52.238;13.438;2022-09-16T03:58:54;10.70;99.90
11474;DHT22;5793;52.238;13.438;2022-09-16T04:01:22;10.80;99.90
11474;DHT22;5793;52.238;13.438;2022-09-16T04:03:50;10.80;99.90
11474;DHT22;5793;52.238;13.438;2022-09-16T04:06:18;10.70;99.90
11474;DHT22;5793;52.238;13.438;2022-09-16T04:08:46;10.80;99.90
11474;DHT22;5793;52.238;13.438;2022-09-16T04:11:17;10.80;99.90
11474;DHT22;5793;52.238;13.438;2022-09-16T04:13:45;10.80;99.90
11474;DHT22;5793;52.238;13.438;2022-09-16T04:16:18;10.80;99.90
11474;DHT22;5793;52.238;13.438;2022-09-16T04:18:47;10.80;99.90
11474;DHT22;5793;52.238;13.438;2022-09-16T04:21:16;10.80;99.90
11474;DHT22;5793;52.238;13.438;2022-09-16T04:23:44;10.70;99.90
11474;DHT22;5793;52.238;13.438;2022-09-16T04:26:12;10.70;99.90
11474;DHT22;5793;52.238;13.438;2022-09-16T04:28:41;10.60;99.90
11474;DHT22;5793;52.238;13.438;2022-09-16T04:31:10;10.70;99.90
11474;DHT22;5793;52.238;13.438;2022-09-16T04:33:39;10.60;99.90
11474;DHT22;5793;52.238;13.438;2022-09-16T04:36:08;10.70;99.90
11474;DHT22;5793;52.238;13.438;2022-09-16T04:38:38;10.60;99.90
11474;DHT22;5793;52.238;13.438;2022-09-16T04:41:08;10.50;99.90
11474;DHT22;5793;52.238;13.438;2022-09-16T04:43:36;10.60;99.90
11474;DHT22;5793;52.238;13.438;2022-09-16T04:46:06;10.60;99.90
11474;DHT22;5793;52.238;13.438;2022-09-16T04:48:35;10.70;99.90
11474;DHT22;5793;52.238;13.438;2022-09-16T04:51:04;10.70;99.90
11474;DHT22;5793;52.238;13.438;2022-09-16T04:53:33;10.70;99.90
11474;DHT22;5793;52.238;13.438;2022-09-16T04:56:09;10.60;99.90
11474;DHT22;5793;52.238;13.438;2022-09-16T04:58:40;10.60;99.90
11474;DHT22;5793;52.238;13.438;2022-09-16T05:01:11;10.60;99.90
11474;DHT22;5793;52.238;13.438;2022-09-16T05:03:40;10.60;99.90
11474;DHT22;5793;52.238;13.438;2022-09-16T05:06:10;10.70;99.90
11474;DHT22;5793;52.238;13.438;2022-09-16T05:08:41;10.70;99.90
11474;DHT22;5793;52.238;13.438;2022-09-16T05:11:10;10.70;99.90
11474;DHT22;5793;52.238;13.438;2022-09-16T05:13:39;10.60;99.90
11474;DHT22;5793;52.238;13.438;2022-09-16T05:16:10;10.60;99.90
11474;DHT22;5793;52.238;13.438;2022-09-16T05:18:40;10.60;99.90
11474;DHT22;5793;52.238;13.438;2022-09-16T05:21:10;10.70;99.90
11474;DHT22;5793;52.238;13.438;2022-09-16T05:23:38;10.70;99.90
11474;DHT22;5793;52.238;13.438;2022-09-16T05:26:14;10.70;99.90
11474;DHT22;5793;52.238;13.438;2022-09-16T05:28:43;10.80;99.90
11474;DHT22;5793;52.238;13.438;2022-09-16T05:31:13;10.80;99.90
11474;DHT22;5793;52.238;13.438;2022-09-16T05:33:44;10.80;99.90
11474;DHT22;5793;52.238;13.438;2022-09-16T05:36:13;10.90;99.90
11474;DHT22;5793;52.238;13.438;2022-09-16T05:38:43;10.90;99.90
11474;DHT22;5793;52.238;13.438;2022-09-16T05:41:31;10.90;99.90
11474;DHT22;5793;52.238;13.438;2022-09-16T05:43:59;10.90;99.90
11474;DHT22;5793;52.238;13.438;2022-09-16T05:46:29;10.90;99.90
11474;DHT22;5793;52.238;13.438;2022-09-16T05:48:56;11.00;99.90
11474;DHT22;5793;52.238;13.438;2022-09-16T05:51:25;11.00;99.90
11474;DHT22;5793;52.238;13.438;2022-09-16T05:53:53;11.00;99.90
11474;DHT22;5793;52.238;13.438;2022-09-16T05:56:23;11.00;99.90
11474;DHT22;5793;52.238;13.438;2022-09-16T05:58:52;11.10;99.90
11474;DHT22;5793;52.238;13.438;2022-09-16T06:01:22;11.20;99.90
11474;DHT22;5793;52.238;13.438;2022-09-16T06:03:52;11.20;99.90
11474;DHT22;5793;52.238;13.438;2022-09-16T06:06:22;11.30;99.90
11474;DHT22;5793;52.238;13.438;2022-09-16T06:08:51;11.40;99.90
11474;DHT22;5793;52.238;13.438;2022-09-16T06:11:20;11.40;99.90
11474;DHT22;5793;52.238;13.438;2022-09-16T06:13:51;11.50;99.90
11474;DHT22;5793;52.238;13.438;2022-09-16T06:16:21;11.50;99.90
11474;DHT22;5793;52.238;13.438;2022-09-16T06:18:53;11.50;99.90
11474;DHT22;5793;52.238;13.438;2022-09-16T06:21:21;11.60;99.90
11474;DHT22;5793;52.238;13.438;2022-09-16T06:23:49;11.50;99.90
11474;DHT22;5793;52.238;13.438;2022-09-16T06:26:20;11.60;99.90
11474;DHT22;5793;52.238;13.438;2022-09-16T06:28:49;11.60;99.90
11474;DHT22;5793;52.238;13.438;2022-09-16T06:31:18;11.60;99.90
11474;DHT22;5793;52.238;13.438;2022-09-16T06:33:47;11.70;99.90
11474;DHT22;5793;52.238;13.438;2022-09-16T06:36:18;11.60;99.90
11474;DHT22;5793;52.238;13.438;2022-09-16T06:38:47;11.70;99.90
11474;DHT22;5793;52.238;13.438;2022-09-16T06:41:16;11.80;99.90
11474;DHT22;5793;52.238;13.438;2022-09-16T06:43:44;11.80;99.90
11474;DHT22;5793;52.238;13.438;2022-09-16T06:46:13;12.00;99.90
11474;DHT22;5793;52.238;13.438;2022-09-16T06:48:43;12.10;99.90
11474;DHT22;5793;52.238;13.438;2022-09-16T06:51:12;12.30;99.90
11474;DHT22;5793;52.238;13.438;2022-09-16T06:53:42;12.40;99.90
11474;DHT22;5793;52.238;13.438;2022-09-16T06:56:13;12.40;99.90
11474;DHT22;5793;52.238;13.438;2022-09-16T06:58:45;12.50;99.90
11474;DHT22;5793;52.238;13.438;2022-09-16T07:01:15;12.70;99.90
11474;DHT22;5793;52.238;13.438;2022-09-16T07:03:46;12.90;99.90
11474;DHT22;5793;52.238;13.438;2022-09-16T07:06:16;13.20;99.90
11474;DHT22;5793;52.238;13.438;2022-09-16T07:08:45;13.50;99.90
11474;DHT22;5793;52.238;13.438;2022-09-16T07:11:16;13.80;99.90
11474;DHT22;5793;52.238;13.438;2022-09-16T07:13:45;13.90;99.90
11474;DHT22;5793;52.238;13.438;2022-09-16T07:16:15;13.90;99.90
11474;DHT22;5793;52.238;13.438;2022-09-16T07:18:43;14.00;99.90
11474;DHT22;5793;52.238;13.438;2022-09-16T07:21:14;14.10;99.90
11474;DHT22;5793;52.238;13.438;2022-09-16T07:23:43;14.10;99.90
11474;DHT22;5793;52.238;13.438;2022-09-16T07:26:13;14.10;99.90
11474;DHT22;5793;52.238;13.438;2022-09-16T07:28:43;14.30;99.90
11474;DHT22;5793;52.238;13.438;2022-09-16T07:31:13;14.60;99.90
11474;DHT22;5793;52.238;13.438;2022-09-16T07:33:44;14.90;99.90
11474;DHT22;5793;52.238;13.438;2022-09-16T07:36:13;14.80;99.90
11474;DHT22;5793;52.238;13.438;2022-09-16T07:38:41;14.90;99.90
11474;DHT22;5793;52.238;13.438;2022-09-16T07:41:12;14.80;99.90
11474;DHT22;5793;52.238;13.438;2022-09-16T07:43:41;14.70;99.90
11474;DHT22;5793;52.238;13.438;2022-09-16T07:46:10;14.80;99.90
11474;DHT22;5793;52.238;13.438;2022-09-16T07:48:39;14.90;99.90
11474;DHT22;5793;52.238;13.438;2022-09-16T07:51:08;15.00;99.90
11474;DHT22;5793;52.238;13.438;2022-09-16T07:53:36;15.30;99.90
11474;DHT22;5793;52.238;13.438;2022-09-16T07:56:06;15.80;99.90
11474;DHT22;5793;52.238;13.438;2022-09-16T07:58:36;16.10;99.90
11474;DHT22;5793;52.238;13.438;2022-09-16T08:01:05;16.30;99.90
11474;DHT22;5793;52.238;13.438;2022-09-16T08:03:34;16.50;99.90
11474;DHT22;5793;52.238;13.438;2022-09-16T08:06:03;16.70;99.90
11474;DHT22;5793;52.238;13.438;2022-09-16T08:08:31;17.30;99.90
11474;DHT22;5793;52.238;13.438;2022-09-16T08:11:00;17.40;99.90
11474;DHT22;5793;52.238;13.438;2022-09-16T08:13:30;17.20;99.90
11474;DHT22;5793;52.238;13.438;2022-09-16T08:16:01;17.20;99.90
11474;DHT22;5793;52.238;13.438;2022-09-16T08:18:29;17.50;99.90
11474;DHT22;5793;52.238;13.438;2022-09-16T08:20:57;18.10;99.90
11474;DHT22;5793;52.238;13.438;2022-09-16T08:23:27;18.40;99.90
11474;DHT22;5793;52.238;13.438;2022-09-16T08:25:56;18.80;99.90
11474;DHT22;5793;52.238;13.438;2022-09-16T08:28:25;20.40;99.90
11474;DHT22;5793;52.238;13.438;2022-09-16T08:31:12;21.40;99.90
11474;DHT22;5793;52.238;13.438;2022-09-16T08:33:41;23.00;99.90
11474;DHT22;5793;52.238;13.438;2022-09-16T08:36:12;24.70;95.90
11474;DHT22;5793;52.238;13.438;2022-09-16T08:38:42;27.00;90.10
11474;DHT22;5793;52.238;13.438;2022-09-16T08:41:33;29.60;72.50
11474;DHT22;5793;52.238;13.438;2022-09-16T08:44:13;29.50;63.70
11474;DHT22;5793;52.238;13.438;2022-09-16T08:46:49;30.00;60.90
11474;DHT22;5793;52.238;13.438;2022-09-16T08:49:23;29.80;59.60
11474;DHT22;5793;52.238;13.438;2022-09-16T08:51:54;28.60;62.50
11474;DHT22;5793;52.238;13.438;2022-09-16T08:54:27;28.60;62.60
11474;DHT22;5793;52.238;13.438;2022-09-16T08:57:00;27.50;63.60
11474;DHT22;5793;52.238;13.438;2022-09-16T08:59:33;25.60;66.80
11474;DHT22;5793;52.238;13.438;2022-09-16T09:02:25;24.00;71.80
11474;DHT22;5793;52.238;13.438;2022-09-16T09:04:55;25.30;67.40
11474;DHT22;5793;52.238;13.438;2022-09-16T09:07:33;27.70;63.80
11474;DHT22;5793;52.238;13.438;2022-09-16T09:10:12;29.20;58.70
11474;DHT22;5793;52.238;13.438;2022-09-16T09:12:48;27.30;62.20
11474;DHT22;5793;52.238;13.438;2022-09-16T09:15:33;23.90;69.90
11474;DHT22;5793;52.238;13.438;2022-09-16T09:18:16;21.00;75.90
11474;DHT22;5793;52.238;13.438;2022-09-16T09:20:51;19.20;86.10
11474;DHT22;5793;52.238;13.438;2022-09-16T09:23:31;18.30;99.90
11474;DHT22;5793;52.238;13.438;2022-09-16T09:26:04;17.80;99.90
11474;DHT22;5793;52.238;13.438;2022-09-16T09:28:52;17.50;99.90
11474;DHT22;5793;52.238;13.438;2022-09-16T09:31:31;17.70;99.90
11474;DHT22;5793;52.238;13.438;2022-09-16T09:34:09;17.80;99.90
11474;DHT22;5793;52.238;13.438;2022-09-16T09:36:49;18.40;99.90
11474;DHT22;5793;52.238;13.438;2022-09-16T09:39:38;20.70;99.90
11474;DHT22;5793;52.238;13.438;2022-09-16T09:42:13;24.90;92.00
11474;DHT22;5793;52.238;13.438;2022-09-16T09:44:51;27.70;72.90
11474;DHT22;5793;52.238;13.438;2022-09-16T09:47:26;29.60;62.70
11474;DHT22;5793;52.238;13.438;2022-09-16T09:50:01;28.20;62.20
11474;DHT22;5793;52.238;13.438;2022-09-16T09:52:34;24.90;68.70
11474;DHT22;5793;52.238;13.438;2022-09-16T09:55:13;22.20;76.20
11474;DHT22;5793;52.238;13.438;2022-09-16T09:57:52;22.90;76.10
11474;DHT22;5793;52.238;13.438;2022-09-16T10:00:22;23.70;72.20
11474;DHT22;5793;52.238;13.438;2022-09-16T10:02:50;22.00;77.50
11474;DHT22;5793;52.238;13.438;2022-09-16T10:05:22;21.70;77.90
11474;DHT22;5793;52.238;13.438;2022-09-16T10:07:52;20.20;81.20
11474;DHT22;5793;52.238;13.438;2022-09-16T10:10:23;18.90;85.00
11474;DHT22;5793;52.238;13.438;2022-09-16T10:12:51;19.80;84.80
11474;DHT22;5793;52.238;13.438;2022-09-16T10:15:22;22.80;77.50
11474;DHT22;5793;52.238;13.438;2022-09-16T10:17:51;25.00;70.30
11474;DHT22;5793;52.238;13.438;2022-09-16T10:20:26;25.20;66.90
11474;DHT22;5793;52.238;13.438;2022-09-16T10:22:59;23.00;72.00
11474;DHT22;5793;52.238;13.438;2022-09-16T10:25:29;22.90;74.20
11474;DHT22;5793;52.238;13.438;2022-09-16T10:27:58;24.10;73.60
11474;DHT22;5793;52.238;13.438;2022-09-16T10:30:27;24.00;69.40
11474;DHT22;5793;52.238;13.438;2022-09-16T10:33:01;22.00;73.00
11474;DHT22;5793;52.238;13.438;2022-09-16T10:35:32;21.20;76.80
11474;DHT22;5793;52.238;13.438;2022-09-16T10:38:04;20.40;78.00
11474;DHT22;5793;52.238;13.438;2022-09-16T10:40:33;19.40;80.50
11474;DHT22;5793;52.238;13.438;2022-09-16T10:43:02;18.90;82.30
11474;DHT22;5793;52.238;13.438;2022-09-16T10:45:34;19.20;85.70
11474;DHT22;5793;52.238;13.438;2022-09-16T10:48:05;19.30;88.80
11474;DHT22;5793;52.238;13.438;2022-09-16T10:50:34;18.90;89.10
11474;DHT22;5793;52.238;13.438;2022-09-16T10:53:02;19.00;91.20
11474;DHT22;5793;52.238;13.438;2022-09-16T10:55:31;19.30;91.30
11474;DHT22;5793;52.238;13.438;2022-09-16T10:58:07;19.40;88.90
11474;DHT22;5793;52.238;13.438;2022-09-16T11:00:44;19.40;92.20
11474;DHT22;5793;52.238;13.438;2022-09-16T11:03:34;19.30;91.40
11474;DHT22;5793;52.238;13.438;2022-09-16T11:06:16;19.10;91.20
11474;DHT22;5793;52.238;13.438;2022-09-16T11:08:55;18.50;92.50
11474;DHT22;5793;52.238;13.438;2022-09-16T11:11:38;17.90;95.50
11474;DHT22;5793;52.238;13.438;2022-09-16T11:14:14;17.80;99.90
11474;DHT22;5793;52.238;13.438;2022-09-16T11:16:57;18.50;99.90
11474;DHT22;5793;52.238;13.438;2022-09-16T11:19:31;18.90;95.40
11474;DHT22;5793;52.238;13.438;2022-09-16T11:22:11;19.00;95.00
11474;DHT22;5793;52.238;13.438;2022-09-16T11:24:50;19.20;94.40
11474;DHT22;5793;52.238;13.438;2022-09-16T11:27:31;19.50;92.30
11474;DHT22;5793;52.238;13.438;2022-09-16T11:30:06;19.40;92.10
11474;DHT22;5793;52.238;13.438;2022-09-16T11:32:59;19.10;92.20
11474;DHT22;5793;52.238;13.438;2022-09-16T11:38:37;19.00;95.10
11474;DHT22;5793;52.238;13.438;2022-09-16T11:41:14;19.30;92.60
11474;DHT22;5793;52.238;13.438;2022-09-16T11:44:10;19.10;94.00
11474;DHT22;5793;52.238;13.438;2022-09-16T11:46:51;19.10;93.90
11474;DHT22;5793;52.238;13.438;2022-09-16T11:49:34;19.20;94.70
11474;DHT22;5793;52.238;13.438;2022-09-16T11:52:14;19.40;95.60
11474;DHT22;5793;52.238;13.438;2022-09-16T11:55:08;19.50;95.40
11474;DHT22;5793;52.238;13.438;2022-09-16T11:57:43;19.70;94.10
11474;DHT22;5793;52.238;13.438;2022-09-16T12:00:14;20.00;94.50
11474;DHT22;5793;52.238;13.438;2022-09-16T12:02:48;20.40;92.20
11474;DHT22;5793;52.238;13.438;2022-09-16T12:05:21;20.50;92.60
11474;DHT22;5793;52.238;13.438;2022-09-16T12:07:55;20.70;92.40
11474;DHT22;5793;52.238;13.438;2022-09-16T12:10:31;20.60;89.80
11474;DHT22;5793;52.238;13.438;2022-09-16T12:13:03;20.50;91.80
11474;DHT22;5793;52.238;13.438;2022-09-16T12:15:36;20.20;91.00
11474;DHT22;5793;52.238;13.438;2022-09-16T12:18:10;19.90;90.20
11474;DHT22;5793;52.238;13.438;2022-09-16T12:20:42;19.70;90.50
11474;DHT22;5793;52.238;13.438;2022-09-16T12:23:16;19.70;91.10
11474;DHT22;5793;52.238;13.438;2022-09-16T12:25:54;19.80;86.70
11474;DHT22;5793;52.238;13.438;2022-09-16T12:28:27;20.00;92.00
11474;DHT22;5793;52.238;13.438;2022-09-16T12:31:05;20.10;87.80
11474;DHT22;5793;52.238;13.438;2022-09-16T12:33:39;20.00;85.30
11474;DHT22;5793;52.238;13.438;2022-09-16T12:36:09;19.90;89.40
11474;DHT22;5793;52.238;13.438;2022-09-16T12:38:37;19.80;87.70
11474;DHT22;5793;52.238;13.438;2022-09-16T12:41:25;19.70;89.70
11474;DHT22;5793;52.238;13.438;2022-09-16T12:44:11;19.80;92.50
11474;DHT22;5793;52.238;13.438;2022-09-16T12:47:12;20.10;86.20
11474;DHT22;5793;52.238;13.438;2022-09-16T12:49:58;20.30;81.90
11474;DHT22;5793;52.238;13.438;2022-09-16T12:52:56;20.50;83.50
11474;DHT22;5793;52.238;13.438;2022-09-16T12:55:41;20.50;82.30
11474;DHT22;5793;52.238;13.438;2022-09-16T13:01:15;20.00;79.00
11474;DHT22;5793;52.238;13.438;2022-09-16T13:03:47;19.70;81.40
11474;DHT22;5793;52.238;13.438;2022-09-16T13:06:21;19.60;79.20
11474;DHT22;5793;52.238;13.438;2022-09-16T13:08:50;19.70;81.50
11474;DHT22;5793;52.238;13.438;2022-09-16T13:11:20;20.00;79.50
11474;DHT22;5793;52.238;13.438;2022-09-16T13:14:20;20.20;78.60
11474;DHT22;5793;52.238;13.438;2022-09-16T13:16:53;20.10;78.20
11474;DHT22;5793;52.238;13.438;2022-09-16T13:19:37;19.90;78.00
11474;DHT22;5793;52.238;13.438;2022-09-16T13:22:16;19.70;79.20
11474;DHT22;5793;52.238;13.438;2022-09-16T13:24:49;19.40;79.80
11474;DHT22;5793;52.238;13.438;2022-09-16T13:27:28;19.00;80.60
11474;DHT22;5793;52.238;13.438;2022-09-16T13:30:11;18.70;82.30
11474;DHT22;5793;52.238;13.438;2022-09-16T13:32:43;18.40;83.90
11474;DHT22;5793;52.238;13.438;2022-09-16T13:35:33;18.30;85.70
11474;DHT22;5793;52.238;13.438;2022-09-16T13:38:21;18.30;84.50
11474;DHT22;5793;52.238;13.438;2022-09-16T13:40:54;18.30;87.10
11474;DHT22;5793;52.238;13.438;2022-09-16T13:43:33;18.30;83.90
11474;DHT22;5793;52.238;13.438;2022-09-16T13:46:08;18.30;85.30
11474;DHT22;5793;52.238;13.438;2022-09-16T13:48:40;18.30;82.90
11474;DHT22;5793;52.238;13.438;2022-09-16T13:51:15;18.30;81.90
11474;DHT22;5793;52.238;13.438;2022-09-16T13:53:45;18.40;83.20
11474;DHT22;5793;52.238;13.438;2022-09-16T13:56:32;18.30;82.80
11474;DHT22;5793;52.238;13.438;2022-09-16T14:02:02;18.30;85.10
11474;DHT22;5793;52.238;13.438;2022-09-16T14:04:44;18.30;81.20
11474;DHT22;5793;52.238;13.438;2022-09-16T14:07:30;18.10;82.80
11474;DHT22;5793;52.238;13.438;2022-09-16T14:10:06;18.00;83.00
11474;DHT22;5793;52.238;13.438;2022-09-16T14:12:43;17.90;84.20
11474;DHT22;5793;52.238;13.438;2022-09-16T14:15:14;17.90;85.20
11474;DHT22;5793;52.238;13.438;2022-09-16T14:17:46;18.00;83.60
11474;DHT22;5793;52.238;13.438;2022-09-16T14:20:34;18.10;86.30
11474;DHT22;5793;52.238;13.438;2022-09-16T14:23:14;18.60;86.20
11474;DHT22;5793;52.238;13.438;2022-09-16T14:25:42;19.00;86.40
11474;DHT22;5793;52.238;13.438;2022-09-16T14:28:16;19.10;85.80
11474;DHT22;5793;52.238;13.438;2022-09-16T14:30:48;19.20;84.60
11474;DHT22;5793;52.238;13.438;2022-09-16T14:33:21;19.00;81.80
11474;DHT22;5793;52.238;13.438;2022-09-16T14:35:52;18.80;83.60
11474;DHT22;5793;52.238;13.438;2022-09-16T14:38:26;18.80;84.10
11474;DHT22;5793;52.238;13.438;2022-09-16T14:41:21;18.70;85.10
11474;DHT22;5793;52.238;13.438;2022-09-16T14:43:50;18.60;85.50
11474;DHT22;5793;52.238;13.438;2022-09-16T14:46:18;18.50;85.90
11474;DHT22;5793;52.238;13.438;2022-09-16T14:48:48;18.40;85.80
11474;DHT22;5793;52.238;13.438;2022-09-16T14:51:20;18.40;86.70
11474;DHT22;5793;52.238;13.438;2022-09-16T14:53:53;18.40;88.80
11474;DHT22;5793;52.238;13.438;2022-09-16T14:56:38;18.30;87.00
11474;DHT22;5793;52.238;13.438;2022-09-16T14:59:10;18.40;88.30
11474;DHT22;5793;52.238;13.438;2022-09-16T15:01:39;18.60;84.00
11474;DHT22;5793;52.238;13.438;2022-09-16T15:04:14;18.70;83.30
11474;DHT22;5793;52.238;13.438;2022-09-16T15:06:50;18.70;84.00
11474;DHT22;5793;52.238;13.438;2022-09-16T15:09:24;18.80;83.90
11474;DHT22;5793;52.238;13.438;2022-09-16T15:11:57;18.60;82.50
11474;DHT22;5793;52.238;13.438;2022-09-16T15:14:26;18.50;82.10
11474;DHT22;5793;52.238;13.438;2022-09-16T15:16:56;18.30;81.20
11474;DHT22;5793;52.238;13.438;2022-09-16T15:19:29;18.20;81.80
11474;DHT22;5793;52.238;13.438;2022-09-16T15:21:57;18.10;82.90
11474;DHT22;5793;52.238;13.438;2022-09-16T15:24:28;18.00;82.40
11474;DHT22;5793;52.238;13.438;2022-09-16T15:26:57;17.90;82.40
11474;DHT22;5793;52.238;13.438;2022-09-16T15:29:29;17.90;82.50
11474;DHT22;5793;52.238;13.438;2022-09-16T15:32:15;17.80;81.50
11474;DHT22;5793;52.238;13.438;2022-09-16T15:34:45;17.90;80.70
11474;DHT22;5793;52.238;13.438;2022-09-16T15:37:31;17.90;75.10
11474;DHT22;5793;52.238;13.438;2022-09-16T15:40:18;17.80;77.30
11474;DHT22;5793;52.238;13.438;2022-09-16T15:42:47;17.70;77.30
11474;DHT22;5793;52.238;13.438;2022-09-16T15:45:17;17.60;76.80
11474;DHT22;5793;52.238;13.438;2022-09-16T15:47:53;17.50;77.80
11474;DHT22;5793;52.238;13.438;2022-09-16T15:50:26;17.50;77.30
11474;DHT22;5793;52.238;13.438;2022-09-16T15:52:59;17.40;77.60
11474;DHT22;5793;52.238;13.438;2022-09-16T15:55:31;17.30;79.80
11474;DHT22;5793;52.238;13.438;2022-09-16T15:58:04;17.30;78.40
11474;DHT22;5793;52.238;13.438;2022-09-16T16:00:57;17.30;79.00
11474;DHT22;5793;52.238;13.438;2022-09-16T16:03:28;17.30;78.20
11474;DHT22;5793;52.238;13.438;2022-09-16T16:05:58;17.20;78.80
11474;DHT22;5793;52.238;13.438;2022-09-16T16:08:38;17.20;78.40
11474;DHT22;5793;52.238;13.438;2022-09-16T16:11:09;17.00;78.20
11474;DHT22;5793;52.238;13.438;2022-09-16T16:13:37;17.00;79.80
11474;DHT22;5793;52.238;13.438;2022-09-16T16:16:06;17.10;78.60
11474;DHT22;5793;52.238;13.438;2022-09-16T16:18:35;16.90;79.10
11474;DHT22;5793;52.238;13.438;2022-09-16T16:21:06;16.80;79.60
11474;DHT22;5793;52.238;13.438;2022-09-16T16:23:34;16.80;81.00
11474;DHT22;5793;52.238;13.438;2022-09-16T16:26:03;16.60;81.40